Time;durP1;ratioP1;P1;durP2;ratioP2;P2;SDS_P1;SDS_P2;PMS_P1;PMS_P2;Temp;Humidity;BMP_temperature;BMP_pressure;BME280_temperature;BME280_humidity;BME280_pressure;Samples;Min_cycle;Max_cycle;Signal;HPM_P1;HPM_P2
2021/09/15 00:02:03;;;;;;;7.13;4.80;;;19.10;99.90;;;;;;7415065;19;20014;-80
2021/09/15 00:04:35;;;;;;;6.88;4.80;;;19.10;99.90;;;;;;7420554;19;20022;-78
2021/09/15 00:07:05;;;;;;;6.22;4.43;;;19.20;99.90;;;;;;7422394;19;20018;-78
2021/09/15 00:09:37;;;;;;;6.72;4.35;;;19.20;99.90;;;;;;7422566;19;20050;-78
2021/09/15 00:12:09;;;;;;;9.85;4.78;;;19.20;99.90;;;;;;7416652;19;20090;-80
2021/09/15 00:14:40;;;;;;;5.95;3.78;;;19.20;99.90;;;;;;7398852;19;20026;-78
2021/09/15 00:17:11;;;;;;;5.85;4.28;;;19.20;99.90;;;;;;7397971;19;20014;-79
2021/09/15 00:19:43;;;;;;;6.40;3.72;;;19.20;99.90;;;;;;7395079;19;20420;-80
2021/09/15 00:22:12;;;;;;;5.40;4.13;;;19.20;99.90;;;;;;7402507;19;20037;-80
2021/09/15 00:24:44;;;;;;;7.85;4.38;;;19.30;99.90;;;;;;7401969;19;20011;-79
2021/09/15 00:27:13;;;;;;;6.40;4.00;;;19.20;99.80;;;;;;7411465;19;20017;-80
2021/09/15 00:29:45;;;;;;;7.00;4.18;;;19.20;99.70;;;;;;7407004;19;20014;-79
2021/09/15 00:32:14;;;;;;;6.72;4.22;;;19.30;99.40;;;;;;7406926;19;20368;-79
2021/09/15 00:34:48;;;;;;;6.82;4.15;;;19.30;99.30;;;;;;7407634;19;20017;-79
2021/09/15 00:37:18;;;;;;;6.68;3.90;;;19.30;99.10;;;;;;7410277;19;20018;-79
2021/09/15 00:39:49;;;;;;;5.85;4.10;;;19.40;98.90;;;;;;7411640;19;20014;-79
2021/09/15 00:42:19;;;;;;;8.07;3.92;;;19.50;98.60;;;;;;7407392;19;20029;-80
2021/09/15 00:44:48;;;;;;;8.57;4.05;;;19.50;98.50;;;;;;7402802;19;20038;-81
2021/09/15 00:47:20;;;;;;;5.85;3.65;;;19.50;98.40;;;;;;7402357;19;20022;-81
2021/09/15 00:49:55;;;;;;;5.30;3.63;;;19.50;98.20;;;;;;7402460;19;20026;-81
2021/09/15 00:52:27;;;;;;;7.47;3.80;;;19.50;98.20;;;;;;7410734;19;20432;-81
2021/09/15 00:54:56;;;;;;;5.43;3.67;;;19.60;97.90;;;;;;7419847;19;20018;-80
2021/09/15 00:57:27;;;;;;;8.18;3.67;;;19.60;97.70;;;;;;7418442;19;20022;-80
2021/09/15 00:59:59;;;;;;;7.28;4.22;;;19.70;97.60;;;;;;7416733;19;20002;-81
2021/09/15 01:02:30;;;;;;;7.07;3.20;;;19.70;97.60;;;;;;7403421;19;20070;-80
2021/09/15 01:05:08;;;;;;;5.40;3.55;;;19.60;97.60;;;;;;7402794;19;20055;-80
2021/09/15 01:07:41;;;;;;;6.80;3.58;;;19.70;97.50;;;;;;7401632;19;20432;-80
2021/09/15 01:10:11;;;;;;;9.98;3.55;;;19.70;97.30;;;;;;7404589;19;20010;-80
2021/09/15 01:12:54;;;;;;;6.55;3.97;;;19.70;97.20;;;;;;7401012;19;20320;-79
2021/09/15 01:15:44;;;;;;;7.97;3.60;;;19.60;97.10;;;;;;7400145;19;20019;-79
2021/09/15 01:18:34;;;;;;;6.97;3.70;;;19.60;97.30;;;;;;7399395;19;20316;-79
2021/09/15 01:21:33;;;;;;;6.28;3.95;;;19.50;97.40;;;;;;7400028;19;20417;-79
2021/09/15 01:24:12;;;;;;;8.95;3.88;;;19.40;97.60;;;;;;7399183;19;20014;-79
2021/09/15 01:27:01;;;;;;;5.57;3.75;;;19.30;97.70;;;;;;7400815;19;20015;-80
2021/09/15 01:29:56;;;;;;;5.60;3.58;;;19.60;97.50;;;;;;7400978;19;20015;-79
2021/09/15 01:32:29;;;;;;;5.82;3.83;;;19.50;97.50;;;;;;7399270;19;20018;-80
2021/09/15 01:34:59;;;;;;;7.28;3.80;;;19.50;97.30;;;;;;7400930;19;20022;-80
2021/09/15 01:37:34;;;;;;;7.57;3.80;;;19.60;97.20;;;;;;7399960;19;20432;-81
2021/09/15 01:40:06;;;;;;;6.60;3.63;;;19.70;97.00;;;;;;7399092;19;20006;-81
2021/09/15 01:42:39;;;;;;;7.20;3.95;;;19.80;97.00;;;;;;7398861;19;20444;-81
2021/09/15 01:45:13;;;;;;;6.68;4.38;;;19.70;96.90;;;;;;7399803;19;20022;-81
2021/09/15 01:47:46;;;;;;;4.90;3.70;;;19.70;96.90;;;;;;7399427;19;20018;-79
2021/09/15 01:50:18;;;;;;;11.02;3.90;;;19.70;97.00;;;;;;7400844;19;20026;-80
2021/09/15 01:52:50;;;;;;;8.07;4.18;;;19.70;97.00;;;;;;7402834;19;20444;-80
2021/09/15 01:55:30;;;;;;;5.57;3.70;;;19.70;96.90;;;;;;7398922;19;20022;-79
2021/09/15 01:58:13;;;;;;;8.43;3.38;;;19.70;97.00;;;;;;7398383;19;20026;-80
2021/09/15 02:00:47;;;;;;;5.55;3.40;;;19.60;97.00;;;;;;7398010;19;20018;-79
2021/09/15 02:03:46;;;;;;;7.25;3.80;;;19.50;97.20;;;;;;7397546;19;20014;-80
2021/09/15 02:06:32;;;;;;;7.82;4.20;;;19.60;97.10;;;;;;7399063;19;20017;-80
2021/09/15 02:09:14;;;;;;;5.15;3.58;;;19.50;97.20;;;;;;7398856;19;20010;-80
2021/09/15 02:11:55;;;;;;;7.80;3.90;;;19.50;97.30;;;;;;7398650;19;20018;-79
2021/09/15 02:14:25;;;;;;;5.78;4.13;;;19.50;97.20;;;;;;7398244;19;20444;-79
2021/09/15 02:16:54;;;;;;;11.35;3.45;;;19.60;97.10;;;;;;7396101;19;20425;-79
2021/09/15 02:19:25;;;;;;;7.22;4.10;;;19.60;97.20;;;;;;7397157;19;20062;-79
2021/09/15 02:22:13;;;;;;;6.07;4.30;;;19.50;97.20;;;;;;7395873;19;20006;-80
2021/09/15 02:25:10;;;;;;;6.15;3.88;;;19.60;97.20;;;;;;7398101;19;20010;-79
2021/09/15 02:27:57;;;;;;;5.20;3.65;;;19.40;97.40;;;;;;7399074;19;20074;-79
2021/09/15 02:30:47;;;;;;;5.38;3.45;;;19.40;97.50;;;;;;7395683;19;20085;-80
2021/09/15 02:33:29;;;;;;;4.90;3.42;;;19.40;97.50;;;;;;7397432;19;20014;-80
2021/09/15 02:36:02;;;;;;;5.85;3.83;;;19.50;97.40;;;;;;7398390;19;20507;-80
2021/09/15 02:38:52;;;;;;;6.60;4.10;;;19.50;97.40;;;;;;7398301;19;20022;-81
2021/09/15 02:41:44;;;;;;;5.97;3.63;;;19.50;97.40;;;;;;7402184;19;20354;-81
2021/09/15 02:44:39;;;;;;;6.40;3.88;;;19.60;97.30;;;;;;7399689;19;20015;-79
2021/09/15 02:47:25;;;;;;;10.65;3.92;;;19.60;97.30;;;;;;7403122;19;20021;-81
2021/09/15 02:50:08;;;;;;;7.30;3.97;;;19.50;97.40;;;;;;7398717;19;20011;-80
2021/09/15 02:52:53;;;;;;;5.10;3.45;;;19.60;97.40;;;;;;7399775;19;20022;-80
2021/09/15 02:55:54;;;;;;;6.20;4.00;;;19.50;97.50;;;;;;7402532;19;20027;-81
2021/09/15 02:58:53;;;;;;;7.88;4.00;;;19.50;97.60;;;;;;7404401;19;20025;-79
2021/09/15 03:01:35;;;;;;;6.05;3.58;;;19.40;97.80;;;;;;7404049;19;20486;-79
2021/09/15 03:04:20;;;;;;;6.93;4.45;;;19.50;97.70;;;;;;7404569;19;20019;-80
2021/09/15 03:07:02;;;;;;;8.85;4.32;;;19.50;97.80;;;;;;7404748;19;20017;-79
2021/09/15 03:09:36;;;;;;;7.07;4.05;;;19.40;97.80;;;;;;7404749;19;20360;-80
2021/09/15 03:12:10;;;;;;;6.70;3.97;;;19.40;97.80;;;;;;7404155;19;20082;-80
2021/09/15 03:14:44;;;;;;;8.00;3.75;;;19.50;97.80;;;;;;7402908;19;20049;-81
2021/09/15 03:17:17;;;;;;;6.00;4.20;;;19.50;97.70;;;;;;7403723;19;20045;-81
2021/09/15 03:19:51;;;;;;;6.82;4.03;;;19.40;97.90;;;;;;7401919;19;20101;-81
2021/09/15 03:22:20;;;;;;;7.38;4.05;;;19.40;97.90;;;;;;7401973;19;20107;-80
2021/09/15 03:24:50;;;;;;;5.40;3.88;;;19.40;97.90;;;;;;7404281;19;20019;-79
2021/09/15 03:27:21;;;;;;;5.30;4.00;;;19.30;98.00;;;;;;7403629;19;20014;-80
2021/09/15 03:29:53;;;;;;;5.63;3.70;;;19.20;98.20;;;;;;7404282;19;20082;-78
2021/09/15 03:32:22;;;;;;;7.43;4.20;;;19.20;98.30;;;;;;7403427;19;20018;-78
2021/09/15 03:34:52;;;;;;;6.22;3.40;;;19.20;98.40;;;;;;7403089;19;20014;-79
2021/09/15 03:37:21;;;;;;;8.70;3.75;;;19.10;98.50;;;;;;7403692;19;20094;-79
2021/09/15 03:39:51;;;;;;;6.93;4.10;;;19.00;98.60;;;;;;7401875;19;20048;-80
2021/09/15 03:42:21;;;;;;;6.03;4.25;;;19.00;98.70;;;;;;7402930;19;20088;-79
2021/09/15 03:44:53;;;;;;;5.32;3.45;;;19.00;98.90;;;;;;7402693;19;20059;-79
2021/09/15 03:47:23;;;;;;;5.18;3.95;;;18.90;98.80;;;;;;7402600;19;20013;-80
2021/09/15 03:49:59;;;;;;;5.15;3.75;;;18.80;99.10;;;;;;7404326;19;20018;-80
2021/09/15 03:52:28;;;;;;;5.28;3.78;;;18.60;99.60;;;;;;7407586;19;20048;-79
2021/09/15 03:55:00;;;;;;;8.48;3.80;;;18.70;99.50;;;;;;7402537;19;20014;-79
2021/09/15 03:57:30;;;;;;;6.03;4.30;;;18.80;99.40;;;;;;7403739;19;20034;-80
2021/09/15 04:00:04;;;;;;;5.97;3.97;;;18.70;99.60;;;;;;7401820;19;20015;-80
2021/09/15 04:02:42;;;;;;;5.20;3.97;;;18.50;99.70;;;;;;7403649;19;20109;-79
2021/09/15 04:05:17;;;;;;;8.77;5.20;;;18.50;99.90;;;;;;7402257;19;20014;-79
2021/09/15 04:07:46;;;;;;;8.00;4.70;;;18.60;99.90;;;;;;7402114;19;20025;-79
2021/09/15 04:10:18;;;;;;;8.82;5.07;;;18.70;99.90;;;;;;7402490;19;20081;-80
2021/09/15 04:12:49;;;;;;;7.60;3.90;;;18.60;99.90;;;;;;7400583;19;20015;-80
2021/09/15 04:15:21;;;;;;;7.53;4.35;;;18.60;99.90;;;;;;7402178;19;20011;-80
2021/09/15 04:17:50;;;;;;;7.57;3.95;;;18.70;99.70;;;;;;7402191;19;20036;-80
2021/09/15 04:20:22;;;;;;;5.18;4.05;;;18.80;99.40;;;;;;7401074;19;20317;-81
2021/09/15 04:22:52;;;;;;;7.03;4.13;;;18.90;99.30;;;;;;7407510;19;20022;-79
2021/09/15 04:33:36;;;;;;;6.72;4.00;;;18.60;99.80;;;;;;7401525;19;20339;-80
2021/09/15 04:36:06;;;;;;;7.53;4.00;;;18.60;99.80;;;;;;7402706;19;20010;-80
2021/09/15 04:38:39;;;;;;;8.00;4.20;;;18.50;99.90;;;;;;7400929;19;20015;-80
2021/09/15 04:41:12;;;;;;;9.25;3.75;;;18.60;99.90;;;;;;7398777;19;20018;-81
2021/09/15 04:43:44;;;;;;;6.60;3.90;;;18.50;99.90;;;;;;7402364;19;20026;-80
2021/09/15 04:46:16;;;;;;;7.25;4.43;;;18.40;99.90;;;;;;7401159;19;20006;-80
2021/09/15 04:48:45;;;;;;;9.70;4.50;;;18.40;99.90;;;;;;7400907;19;20014;-80
2021/09/15 04:51:15;;;;;;;9.48;4.13;;;18.40;99.90;;;;;;7400992;19;20103;-81
2021/09/15 04:53:50;;;;;;;6.15;4.30;;;18.30;99.90;;;;;;7401323;19;20085;-79
2021/09/15 04:56:22;;;;;;;9.65;4.13;;;18.30;99.90;;;;;;7400144;19;20175;-79
2021/09/15 04:58:54;;;;;;;6.43;4.22;;;18.30;99.90;;;;;;7400867;19;20082;-80
2021/09/15 05:01:29;;;;;;;8.63;4.32;;;18.20;99.90;;;;;;7397737;19;20014;-81
2021/09/15 05:04:04;;;;;;;6.82;4.60;;;18.20;99.90;;;;;;7404321;19;20018;-78
2021/09/15 05:06:34;;;;;;;7.10;4.57;;;18.20;99.90;;;;;;7400938;19;20017;-80
2021/09/15 05:09:04;;;;;;;9.10;4.97;;;18.20;99.90;;;;;;7400451;19;20021;-81
2021/09/15 05:11:37;;;;;;;10.68;7.40;;;18.20;99.90;;;;;;7403992;19;20019;-81
2021/09/15 05:14:08;;;;;;;17.27;8.05;;;18.30;99.90;;;;;;7410886;19;20017;-81
2021/09/15 05:16:40;;;;;;;12.40;5.47;;;18.30;99.90;;;;;;7404919;19;20014;-80
2021/09/15 05:19:12;;;;;;;18.52;6.40;;;18.40;99.90;;;;;;7404531;19;20546;-81
2021/09/15 05:21:42;;;;;;;12.00;5.22;;;18.50;99.90;;;;;;7396865;19;20691;-81
2021/09/15 05:24:13;;;;;;;21.10;8.48;;;18.60;99.90;;;;;;7397416;19;20014;-80
2021/09/15 05:26:45;;;;;;;16.08;6.72;;;18.60;99.90;;;;;;7396713;19;20134;-79
2021/09/15 05:29:15;;;;;;;8.77;5.55;;;18.70;99.90;;;;;;7398767;19;20026;-80
2021/09/15 05:31:47;;;;;;;17.02;4.75;;;18.70;99.90;;;;;;7397572;19;20039;-79
2021/09/15 05:34:16;;;;;;;10.05;5.35;;;18.70;99.90;;;;;;7397394;19;20114;-80
2021/09/15 05:36:46;;;;;;;12.82;5.47;;;18.80;99.90;;;;;;7398210;19;20023;-80
2021/09/15 05:39:17;;;;;;;13.55;6.07;;;18.80;99.90;;;;;;7397915;19;20020;-80
2021/09/15 05:41:47;;;;;;;7.55;4.40;;;18.90;99.90;;;;;;7395664;19;20412;-81
2021/09/15 05:44:17;;;;;;;8.75;4.95;;;19.00;99.90;;;;;;7395791;19;20014;-80
2021/09/15 05:46:49;;;;;;;9.30;4.80;;;19.10;99.90;;;;;;7398731;19;20018;-79
2021/09/15 05:49:21;;;;;;;13.02;8.15;;;19.20;99.80;;;;;;7398362;19;20015;-79
2021/09/15 05:51:51;;;;;;;8.52;4.55;;;19.30;99.40;;;;;;7397526;19;20029;-80
2021/09/15 05:54:23;;;;;;;9.80;4.10;;;19.40;99.00;;;;;;7398605;19;20011;-79
2021/09/15 05:56:52;;;;;;;6.25;3.90;;;19.50;98.80;;;;;;7397043;19;20326;-80
2021/09/15 05:59:26;;;;;;;15.02;4.60;;;19.60;98.60;;;;;;7398040;19;20021;-82
2021/09/15 06:02:00;;;;;;;7.90;4.28;;;19.70;98.50;;;;;;7396839;19;20028;-78
2021/09/15 06:04:30;;;;;;;9.02;4.22;;;19.80;97.90;;;;;;7396410;19;20573;-80
2021/09/15 06:07:23;;;;;;;7.50;3.92;;;19.80;97.70;;;;;;7397398;19;20030;-80
2021/09/15 06:09:53;;;;;;;8.13;4.20;;;19.90;97.50;;;;;;7397978;19;20021;-78
2021/09/15 06:12:22;;;;;;;9.32;4.10;;;20.10;98.60;;;;;;7399083;19;20098;-87
2021/09/15 06:14:51;;;;;;;11.65;4.30;;;20.30;98.00;;;;;;7396660;19;20033;-82
2021/09/15 06:17:23;;;;;;;5.75;3.72;;;20.40;97.60;;;;;;7398288;19;20318;-82
2021/09/15 06:19:53;;;;;;;10.50;3.78;;;20.50;96.80;;;;;;7398019;19;20450;-82
2021/09/15 06:22:45;;;;;;;7.45;3.55;;;20.50;96.90;;;;;;7400989;19;20026;-83
2021/09/15 06:25:45;;;;;;;10.40;4.07;;;20.60;96.50;;;;;;7399593;19;20085;-82
2021/09/15 06:28:16;;;;;;;7.38;3.70;;;20.60;96.00;;;;;;7395683;19;20017;-82
2021/09/15 06:30:46;;;;;;;8.55;3.75;;;20.60;96.20;;;;;;7394167;19;20030;-81
2021/09/15 06:33:18;;;;;;;8.25;3.80;;;20.70;95.60;;;;;;7395641;19;20018;-82
2021/09/15 06:35:51;;;;;;;11.75;3.58;;;20.70;95.50;;;;;;7395249;19;20010;-82
2021/09/15 06:38:23;;;;;;;6.43;3.83;;;20.70;95.70;;;;;;7393296;19;20019;-82
2021/09/15 06:40:53;;;;;;;7.70;3.90;;;20.70;95.80;;;;;;7391465;19;20574;-81
2021/09/15 06:43:22;;;;;;;7.38;3.72;;;20.70;96.00;;;;;;7392212;19;20014;-81
2021/09/15 06:45:51;;;;;;;5.43;3.33;;;20.70;95.90;;;;;;7392907;19;20019;-82
2021/09/15 06:48:25;;;;;;;11.05;3.78;;;20.70;95.70;;;;;;7394030;19;20014;-81
2021/09/15 06:50:55;;;;;;;12.85;3.83;;;20.70;95.90;;;;;;7395369;19;20284;-79
2021/09/15 06:53:25;;;;;;;6.47;3.90;;;20.80;95.60;;;;;;7401510;19;20006;-81
2021/09/15 06:55:57;;;;;;;9.30;3.72;;;21.00;95.40;;;;;;7401577;19;20015;-83
2021/09/15 06:58:26;;;;;;;10.23;3.80;;;21.20;95.10;;;;;;7397087;19;20021;-80
2021/09/15 07:00:58;;;;;;;9.10;3.95;;;21.40;94.50;;;;;;7397050;19;20010;-82
2021/09/15 07:03:30;;;;;;;10.55;3.75;;;21.50;94.30;;;;;;7397583;19;20014;-80
2021/09/15 07:06:00;;;;;;;9.60;3.60;;;21.70;94.10;;;;;;7398740;19;20010;-81
2021/09/15 07:08:32;;;;;;;7.05;3.67;;;21.80;93.90;;;;;;7394812;19;20265;-81
2021/09/15 07:11:01;;;;;;;8.75;3.85;;;22.10;93.50;;;;;;7396521;19;20018;-81
2021/09/15 07:13:31;;;;;;;6.07;3.42;;;22.30;92.80;;;;;;7395656;19;20468;-81
2021/09/15 07:16:01;;;;;;;5.97;3.58;;;22.40;92.70;;;;;;7395818;19;20095;-80
2021/09/15 07:18:33;;;;;;;7.57;3.67;;;22.50;92.40;;;;;;7395244;19;20014;-81
2021/09/15 07:21:05;;;;;;;11.63;3.90;;;22.70;92.30;;;;;;7395934;19;20019;-80
2021/09/15 07:23:36;;;;;;;14.77;3.92;;;22.70;92.10;;;;;;7392228;19;20002;-81
2021/09/15 07:26:06;;;;;;;12.20;3.88;;;22.80;91.80;;;;;;7396020;19;20011;-81
2021/09/15 07:28:35;;;;;;;6.13;3.90;;;22.80;91.40;;;;;;7395111;19;20015;-82
2021/09/15 07:31:07;;;;;;;10.38;3.80;;;22.80;91.60;;;;;;7395959;19;20439;-83
2021/09/15 07:33:40;;;;;;;9.77;3.78;;;22.80;91.50;;;;;;7398313;19;20010;-82
2021/09/15 07:36:09;;;;;;;7.07;3.70;;;23.00;91.40;;;;;;7396454;19;20026;-82
2021/09/15 07:38:39;;;;;;;9.30;4.10;;;23.00;91.20;;;;;;7398311;19;20097;-82
2021/09/15 07:41:13;;;;;;;6.57;3.75;;;23.00;91.10;;;;;;7402192;19;20018;-84
2021/09/15 07:43:45;;;;;;;8.00;3.65;;;23.10;91.10;;;;;;7403545;19;20029;-83
2021/09/15 07:46:14;;;;;;;9.48;4.10;;;23.20;91.20;;;;;;7402351;19;20029;-83
2021/09/15 07:48:49;;;;;;;8.18;4.00;;;23.10;91.30;;;;;;7409771;19;20026;-83
2021/09/15 07:51:19;;;;;;;5.93;3.47;;;23.10;91.20;;;;;;7417766;19;20010;-82
2021/09/15 07:53:48;;;;;;;12.77;3.67;;;23.00;91.30;;;;;;7408853;19;20107;-82
2021/09/15 07:56:21;;;;;;;7.75;3.92;;;23.10;91.30;;;;;;7402943;19;20015;-83
2021/09/15 07:58:53;;;;;;;12.50;3.95;;;23.00;91.30;;;;;;7402579;19;20025;-83
2021/09/15 08:01:25;;;;;;;9.32;3.60;;;22.90;91.30;;;;;;7400555;19;20394;-85
2021/09/15 08:03:57;;;;;;;9.20;3.60;;;22.90;91.60;;;;;;7404095;19;20018;-83
2021/09/15 08:06:35;;;;;;;8.48;4.22;;;22.90;91.60;;;;;;7400966;19;20014;-82
2021/09/15 08:09:07;;;;;;;16.23;3.78;;;22.80;91.90;;;;;;7400686;19;20091;-84
2021/09/15 08:11:36;;;;;;;11.18;4.10;;;22.60;92.10;;;;;;7402195;19;20094;-83
2021/09/15 08:14:05;;;;;;;7.47;3.75;;;22.50;92.30;;;;;;7401836;19;20014;-84
2021/09/15 08:16:37;;;;;;;11.05;3.80;;;22.50;92.50;;;;;;7400713;19;20018;-83
2021/09/15 08:19:10;;;;;;;7.60;3.60;;;22.70;92.50;;;;;;7402908;19;20051;-82
2021/09/15 08:21:39;;;;;;;12.63;4.00;;;22.80;92.30;;;;;;7399826;19;20011;-83
2021/09/15 08:24:09;;;;;;;7.13;3.70;;;22.90;92.00;;;;;;7402580;19;20317;-85
2021/09/15 08:26:40;;;;;;;8.18;4.07;;;23.00;91.90;;;;;;7401846;19;20030;-85
2021/09/15 08:29:10;;;;;;;8.13;4.20;;;23.10;91.90;;;;;;7403103;19;20473;-83
2021/09/15 08:31:39;;;;;;;24.33;4.13;;;23.20;91.60;;;;;;7402160;19;20026;-85
2021/09/15 08:34:11;;;;;;;12.57;4.15;;;23.30;91.50;;;;;;7403511;19;20015;-82
2021/09/15 08:36:44;;;;;;;11.18;4.05;;;23.40;91.50;;;;;;7399311;19;20010;-82
2021/09/15 08:39:13;;;;;;;6.32;3.65;;;23.50;91.30;;;;;;7402413;19;20099;-81
2021/09/15 08:41:43;;;;;;;9.30;3.88;;;23.40;91.20;;;;;;7401222;19;20018;-82
2021/09/15 08:44:12;;;;;;;7.65;3.30;;;23.40;91.40;;;;;;7401434;19;20312;-83
2021/09/15 08:46:44;;;;;;;10.13;3.65;;;23.40;91.50;;;;;;7401801;19;20309;-83
2021/09/15 08:49:20;;;;;;;10.23;4.00;;;23.60;91.40;;;;;;7400880;19;20017;-83
2021/09/15 08:51:49;;;;;;;9.18;4.43;;;23.90;91.10;;;;;;7400762;19;20015;-84
2021/09/15 08:54:21;;;;;;;13.02;4.13;;;23.90;90.90;;;;;;7401751;19;20014;-84
2021/09/15 08:56:50;;;;;;;9.50;3.92;;;23.80;90.70;;;;;;7400881;19;20014;-83
2021/09/15 08:59:22;;;;;;;13.65;4.60;;;23.90;90.70;;;;;;7402286;19;20011;-83
2021/09/15 09:02:08;;;;;;;9.40;3.58;;;23.80;91.00;;;;;;7401395;19;20007;-84
2021/09/15 09:05:00;;;;;;;13.52;3.55;;;23.70;91.00;;;;;;7401633;19;20435;-83
2021/09/15 09:07:32;;;;;;;11.38;3.65;;;23.70;91.10;;;;;;7401784;19;20047;-83
2021/09/15 09:10:06;;;;;;;7.88;3.75;;;23.50;91.20;;;;;;7401705;19;20026;-83
2021/09/15 09:12:38;;;;;;;11.27;4.00;;;23.30;91.40;;;;;;7401176;19;20019;-84
2021/09/15 09:15:20;;;;;;;7.25;3.95;;;23.10;91.70;;;;;;7401609;19;20006;-84
2021/09/15 09:17:52;;;;;;;9.32;4.00;;;23.00;92.20;;;;;;7408499;19;20040;-84
2021/09/15 09:20:31;;;;;;;7.65;3.70;;;22.90;92.40;;;;;;7401442;19;20018;-84
2021/09/15 09:23:09;;;;;;;8.43;3.60;;;22.80;92.60;;;;;;7399018;19;20103;-84
2021/09/15 09:25:42;;;;;;;9.50;3.92;;;22.70;92.60;;;;;;7401113;19;20026;-84
2021/09/15 09:28:30;;;;;;;11.15;4.40;;;22.60;92.80;;;;;;7407058;19;20022;-83
2021/09/15 09:31:03;;;;;;;18.65;4.90;;;22.60;93.10;;;;;;7406413;19;20014;-85
2021/09/15 09:33:39;;;;;;;11.63;4.63;;;22.40;95.50;;;;;;7400573;19;20011;-84
2021/09/15 09:36:13;;;;;;;13.40;4.38;;;21.90;96.30;;;;;;7400457;19;20427;-87
2021/09/15 09:38:44;;;;;;;11.43;4.53;;;21.50;97.80;;;;;;7402416;19;20040;-87
2021/09/15 09:41:20;;;;;;;12.10;4.53;;;21.30;98.20;;;;;;7400112;19;20010;-84
2021/09/15 09:43:54;;;;;;;7.78;4.40;;;21.20;98.00;;;;;;7400775;19;20341;-85
2021/09/15 09:46:35;;;;;;;8.80;4.53;;;21.20;98.80;;;;;;7399244;19;20030;-85
2021/09/15 09:49:11;;;;;;;10.93;5.10;;;21.30;98.40;;;;;;7397845;19;20025;-84
2021/09/15 09:51:46;;;;;;;7.40;3.78;;;21.40;98.60;;;;;;7398704;19;20007;-83
2021/09/15 09:54:21;;;;;;;7.50;4.35;;;21.40;97.90;;;;;;7401190;19;20030;-86
2021/09/15 09:56:52;;;;;;;7.07;4.10;;;21.40;97.80;;;;;;7398186;19;20084;-85
2021/09/15 09:59:26;;;;;;;7.20;4.00;;;21.50;97.50;;;;;;7399794;19;20432;-85
2021/09/15 10:01:57;;;;;;;15.52;4.85;;;21.50;98.10;;;;;;7398124;19;20006;-83
2021/09/15 10:04:28;;;;;;;17.45;4.57;;;21.60;97.90;;;;;;7402864;19;20011;-83
2021/09/15 10:07:05;;;;;;;10.15;4.30;;;21.70;98.30;;;;;;7415720;19;20133;-83
2021/09/15 10:09:35;;;;;;;11.15;4.45;;;21.80;97.90;;;;;;7403391;19;20084;-83
2021/09/15 10:12:11;;;;;;;10.35;4.47;;;22.00;97.70;;;;;;7407054;19;20015;-84
2021/09/15 10:14:42;;;;;;;12.93;4.72;;;22.00;97.30;;;;;;7409122;19;20540;-84
2021/09/15 10:17:16;;;;;;;7.65;4.85;;;21.70;98.00;;;;;;7400098;19;20019;-83
2021/09/15 10:19:54;;;;;;;10.25;4.47;;;21.60;98.40;;;;;;7401380;19;20044;-83
2021/09/15 10:22:43;;;;;;;10.35;4.65;;;21.60;98.60;;;;;;7397879;19;20010;-84
2021/09/15 10:25:13;;;;;;;8.85;4.93;;;21.70;98.60;;;;;;7400575;19;20016;-85
2021/09/15 10:28:02;;;;;;;8.80;5.32;;;21.70;98.50;;;;;;7402062;19;20014;-84
2021/09/15 10:30:48;;;;;;;8.43;5.57;;;21.70;99.00;;;;;;7396137;19;20336;-84
2021/09/15 10:33:50;;;;;;;8.10;4.90;;;21.80;98.70;;;;;;7402138;19;20015;-84
2021/09/15 10:36:53;;;;;;;12.60;5.53;;;21.80;98.80;;;;;;7399577;19;20021;-84
2021/09/15 10:39:28;;;;;;;11.90;5.57;;;21.70;99.80;;;;;;7399675;19;20029;-84
2021/09/15 10:41:58;;;;;;;8.43;5.25;;;21.70;99.90;;;;;;7407174;19;20014;-86
2021/09/15 10:44:28;;;;;;;13.95;5.43;;;21.60;99.90;;;;;;7405953;19;20341;-84
2021/09/15 10:47:17;;;;;;;13.65;5.43;;;21.50;99.90;;;;;;7416696;19;20020;-84
2021/09/15 10:49:47;;;;;;;10.20;5.50;;;21.50;99.90;;;;;;7416990;19;20018;-81
2021/09/15 10:52:29;;;;;;;10.55;6.18;;;21.30;99.90;;;;;;7405059;19;20293;-85
2021/09/15 10:55:02;;;;;;;19.40;7.68;;;21.10;99.90;;;;;;7400344;19;20026;-82
2021/09/15 10:57:39;;;;;;;12.63;7.25;;;19.70;99.90;;;;;;7398785;19;20297;-83
2021/09/15 11:00:24;;;;;;;18.55;8.60;;;19.60;99.90;;;;;;7397474;19;20007;-82
2021/09/15 11:02:56;;;;;;;13.85;8.75;;;19.90;99.90;;;;;;7396557;19;20444;-81
2021/09/15 11:05:45;;;;;;;9.82;6.43;;;20.60;99.90;;;;;;7393872;19;20142;-81
2021/09/15 11:08:35;;;;;;;9.10;5.80;;;21.20;99.90;;;;;;7396348;19;20022;-82
2021/09/15 11:11:11;;;;;;;10.98;6.78;;;21.50;99.90;;;;;;7398133;19;20019;-84
2021/09/15 11:13:54;;;;;;;11.95;6.80;;;21.40;99.90;;;;;;7399616;19;20440;-81
2021/09/15 11:16:28;;;;;;;10.20;7.47;;;21.50;99.90;;;;;;7407279;19;20018;-82
2021/09/15 11:19:00;;;;;;;10.60;7.18;;;21.60;99.90;;;;;;7407855;19;20346;-83
2021/09/15 11:21:34;;;;;;;13.32;8.00;;;21.50;99.90;;;;;;7404567;19;20010;-80
2021/09/15 11:24:10;;;;;;;15.85;7.72;;;21.40;99.90;;;;;;7404939;19;20014;-85
2021/09/15 11:26:49;;;;;;;11.40;7.90;;;21.30;99.90;;;;;;7406204;19;20010;-82
2021/09/15 11:29:40;;;;;;;12.63;7.88;;;21.20;99.90;;;;;;7409380;19;20010;-82
2021/09/15 11:32:12;;;;;;;11.68;7.25;;;21.30;99.90;;;;;;7407737;19;20003;-83
2021/09/15 11:34:43;;;;;;;14.13;6.97;;;21.40;99.90;;;;;;7403579;19;20022;-83
2021/09/15 11:37:21;;;;;;;12.23;8.00;;;21.40;99.90;;;;;;7405358;19;20007;-83
2021/09/15 11:39:58;;;;;;;12.68;7.38;;;21.60;99.90;;;;;;7401586;19;20007;-83
2021/09/15 11:42:35;;;;;;;11.52;7.03;;;21.60;99.90;;;;;;7402995;19;20026;-83
2021/09/15 11:45:17;;;;;;;13.85;7.10;;;21.80;99.90;;;;;;7405575;19;20090;-82
2021/09/15 11:47:50;;;;;;;11.60;6.45;;;21.90;99.90;;;;;;7405869;19;20038;-81
2021/09/15 11:50:21;;;;;;;12.00;6.43;;;22.10;99.90;;;;;;7404149;19;20314;-81
2021/09/15 11:52:54;;;;;;;9.20;6.40;;;22.20;99.90;;;;;;7403424;19;20034;-80
2021/09/15 11:55:23;;;;;;;9.52;6.88;;;22.40;99.90;;;;;;7405875;19;20029;-81
2021/09/15 11:58:00;;;;;;;9.80;6.25;;;22.40;99.90;;;;;;7398889;19;20013;-82
2021/09/15 12:00:31;;;;;;;;;;;22.50;99.90;;;;;;7404609;19;20309;-81
2021/09/15 12:03:03;;;;;;;13.38;7.07;;;22.40;99.90;;;;;;7402621;19;19961;-82
2021/09/15 12:05:33;;;;;;;11.05;6.85;;;22.40;99.90;;;;;;7405680;19;20013;-80
2021/09/15 12:08:07;;;;;;;10.00;6.80;;;22.60;99.90;;;;;;7403366;19;20011;-82
2021/09/15 12:10:37;;;;;;;11.00;6.75;;;22.70;99.90;;;;;;7400006;19;20662;-82
2021/09/15 12:13:12;;;;;;;10.77;6.55;;;22.50;99.90;;;;;;7403620;19;20111;-81
2021/09/15 12:15:47;;;;;;;9.27;6.90;;;22.30;99.90;;;;;;7401099;19;20021;-81
2021/09/15 12:18:21;;;;;;;12.60;7.35;;;22.20;99.90;;;;;;7402506;19;20010;-82
2021/09/15 12:20:54;;;;;;;10.13;7.00;;;22.10;99.90;;;;;;7405792;19;20007;-80
2021/09/15 12:23:35;;;;;;;12.60;7.55;;;21.90;99.90;;;;;;7401550;19;20038;-82
2021/09/15 12:26:04;;;;;;;14.77;7.32;;;21.80;99.90;;;;;;7401772;19;20011;-83
2021/09/15 12:28:40;;;;;;;11.30;7.90;;;21.80;99.90;;;;;;7406046;19;20021;-81
2021/09/15 12:31:19;;;;;;;14.73;9.05;;;21.70;99.90;;;;;;7402929;19;20031;-82
2021/09/15 12:33:48;;;;;;;12.55;7.68;;;21.80;99.90;;;;;;7401193;19;20017;-80
2021/09/15 12:36:19;;;;;;;13.30;7.60;;;22.00;99.90;;;;;;7399757;19;20018;-81
2021/09/15 12:38:55;;;;;;;11.98;8.60;;;22.30;99.90;;;;;;7402344;19;20006;-81
2021/09/15 12:41:29;;;;;;;14.40;7.97;;;22.60;99.90;;;;;;7402466;19;20011;-82
2021/09/15 12:44:12;;;;;;;13.73;8.20;;;22.60;99.90;;;;;;7400068;19;20029;-81
2021/09/15 12:46:51;;;;;;;14.10;8.43;;;22.60;99.90;;;;;;7405671;19;20030;-80
2021/09/15 12:49:32;;;;;;;14.77;8.40;;;22.50;99.90;;;;;;7402553;19;20305;-80
2021/09/15 12:52:07;;;;;;;10.60;7.30;;;22.40;99.90;;;;;;7403331;19;20011;-81
2021/09/15 12:54:38;;;;;;;10.07;8.15;;;22.30;99.90;;;;;;7408149;19;20068;-79
2021/09/15 12:57:16;;;;;;;12.95;7.72;;;22.40;99.90;;;;;;7413422;19;20065;-80
2021/09/15 12:59:49;;;;;;;9.82;7.80;;;22.30;99.90;;;;;;7414261;19;20015;-81
2021/09/15 13:02:38;;;;;;;12.82;8.13;;;22.20;99.90;;;;;;7404832;19;21885;-79
2021/09/15 13:05:10;;;;;;;12.00;8.32;;;22.20;99.90;;;;;;7405942;19;20043;-81
2021/09/15 13:07:43;;;;;;;13.02;7.55;;;22.10;99.90;;;;;;7406696;19;20025;-81
2021/09/15 13:10:15;;;;;;;14.57;9.30;;;21.90;99.90;;;;;;7403421;19;20017;-80
2021/09/15 13:12:49;;;;;;;11.35;7.55;;;21.80;99.90;;;;;;7400903;19;20011;-81
2021/09/15 13:15:22;;;;;;;11.50;8.32;;;21.90;99.90;;;;;;7401721;19;20015;-80
2021/09/15 13:17:54;;;;;;;12.27;7.80;;;22.10;99.90;;;;;;7402106;19;20025;-80
2021/09/15 13:20:23;;;;;;;14.73;7.80;;;22.10;99.90;;;;;;7401177;19;20090;-80
2021/09/15 13:22:55;;;;;;;10.43;7.55;;;22.20;99.90;;;;;;7397932;19;20014;-81
2021/09/15 13:25:26;;;;;;;11.18;7.57;;;22.20;99.90;;;;;;7403068;19;20010;-81
2021/09/15 13:27:56;;;;;;;11.40;6.75;;;22.40;99.90;;;;;;7403914;19;20010;-81
2021/09/15 13:30:28;;;;;;;10.02;7.40;;;22.60;99.90;;;;;;7401292;19;20340;-80